Terminal Aerodrome Forecast
Issued by NWS

Home | Current Version | Previous Version | Text Only | Print | Product List | Glossary Off
Versions: 1 2 3 4 5 6 7 8 9 10 11 12 13 14 15 16 17 18 19 20 21 22 23 24 25

000
FTUS43 KBIS 311526 AAA
TAFJMS
TAF AMD
KJMS 311526Z 3115/0112 34008KT 4SM FU BKN250
     FM311800 30016G23KT P6SM SCT080
     FM010200 27005KT P6SM SKC=

USA.gov is the U.S. government's official web portal to all federal, state and local government web resources and services.